sensor_id;sensor_type;location;lat;lon;timestamp;temperature;humidity
3416;DHT22;1721;51.238;9.562;2024-03-08T00:00:26;3.20;81.30
3416;DHT22;1721;51.238;9.562;2024-03-08T00:02:52;3.10;81.70
3416;DHT22;1721;51.238;9.562;2024-03-08T00:05:19;2.90;82.00
3416;DHT22;1721;51.238;9.562;2024-03-08T00:07:45;2.80;82.60
3416;DHT22;1721;51.238;9.562;2024-03-08T00:10:12;2.90;82.40
3416;DHT22;1721;51.238;9.562;2024-03-08T00:12:39;2.80;82.50
3416;DHT22;1721;51.238;9.562;2024-03-08T00:15:09;2.80;82.80
3416;DHT22;1721;51.238;9.562;2024-03-08T00:17:35;2.90;82.70
3416;DHT22;1721;51.238;9.562;2024-03-08T00:20:01;2.90;82.30
3416;DHT22;1721;51.238;9.562;2024-03-08T00:22:28;2.90;82.30
3416;DHT22;1721;51.238;9.562;2024-03-08T00:24:55;2.80;82.90
3416;DHT22;1721;51.238;9.562;2024-03-08T00:27:21;2.60;82.80
3416;DHT22;1721;51.238;9.562;2024-03-08T00:29:48;2.70;83.40
3416;DHT22;1721;51.238;9.562;2024-03-08T00:32:13;2.70;83.10
3416;DHT22;1721;51.238;9.562;2024-03-08T00:34:39;2.70;82.60
3416;DHT22;1721;51.238;9.562;2024-03-08T00:37:06;2.70;82.00
3416;DHT22;1721;51.238;9.562;2024-03-08T00:39:32;2.80;82.20
3416;DHT22;1721;51.238;9.562;2024-03-08T00:41:58;2.80;82.40
3416;DHT22;1721;51.238;9.562;2024-03-08T00:44:24;2.80;81.70
3416;DHT22;1721;51.238;9.562;2024-03-08T00:46:50;3.00;81.60
3416;DHT22;1721;51.238;9.562;2024-03-08T00:49:15;3.00;81.30
3416;DHT22;1721;51.238;9.562;2024-03-08T00:51:42;3.10;80.80
3416;DHT22;1721;51.238;9.562;2024-03-08T00:54:09;3.10;80.30
3416;DHT22;1721;51.238;9.562;2024-03-08T00:56:34;3.10;80.90
3416;DHT22;1721;51.238;9.562;2024-03-08T00:59:01;3.20;80.50
3416;DHT22;1721;51.238;9.562;2024-03-08T01:01:28;3.30;80.40
3416;DHT22;1721;51.238;9.562;2024-03-08T01:03:53;3.30;79.90
3416;DHT22;1721;51.238;9.562;2024-03-08T01:06:19;3.20;79.70
3416;DHT22;1721;51.238;9.562;2024-03-08T01:08:45;3.30;79.90
3416;DHT22;1721;51.238;9.562;2024-03-08T01:11:12;3.20;79.70
3416;DHT22;1721;51.238;9.562;2024-03-08T01:13:38;3.20;80.10
3416;DHT22;1721;51.238;9.562;2024-03-08T01:16:03;3.30;80.00
3416;DHT22;1721;51.238;9.562;2024-03-08T01:18:29;3.20;79.70
3416;DHT22;1721;51.238;9.562;2024-03-08T01:20:55;3.20;79.60
3416;DHT22;1721;51.238;9.562;2024-03-08T01:23:21;3.30;79.60
3416;DHT22;1721;51.238;9.562;2024-03-08T01:25:46;3.30;79.40
3416;DHT22;1721;51.238;9.562;2024-03-08T01:28:12;3.30;79.40
3416;DHT22;1721;51.238;9.562;2024-03-08T01:30:38;3.30;79.20
3416;DHT22;1721;51.238;9.562;2024-03-08T01:33:04;3.30;79.40
3416;DHT22;1721;51.238;9.562;2024-03-08T01:35:29;3.20;79.20
3416;DHT22;1721;51.238;9.562;2024-03-08T01:37:56;3.20;79.60
3416;DHT22;1721;51.238;9.562;2024-03-08T01:40:21;3.20;79.40
3416;DHT22;1721;51.238;9.562;2024-03-08T01:42:47;3.20;79.70
3416;DHT22;1721;51.238;9.562;2024-03-08T01:45:13;3.10;79.30
3416;DHT22;1721;51.238;9.562;2024-03-08T01:47:39;3.10;79.60
3416;DHT22;1721;51.238;9.562;2024-03-08T01:50:04;3.20;79.30
3416;DHT22;1721;51.238;9.562;2024-03-08T01:52:32;3.30;79.40
3416;DHT22;1721;51.238;9.562;2024-03-08T01:55:00;3.20;78.80
3416;DHT22;1721;51.238;9.562;2024-03-08T01:57:28;3.10;80.00
3416;DHT22;1721;51.238;9.562;2024-03-08T01:59:54;3.10;79.90
3416;DHT22;1721;51.238;9.562;2024-03-08T02:02:21;3.00;79.80
3416;DHT22;1721;51.238;9.562;2024-03-08T02:04:48;2.90;80.40
3416;DHT22;1721;51.238;9.562;2024-03-08T02:07:13;3.00;80.50
3416;DHT22;1721;51.238;9.562;2024-03-08T02:09:39;3.00;80.30
3416;DHT22;1721;51.238;9.562;2024-03-08T02:12:05;3.00;80.20
3416;DHT22;1721;51.238;9.562;2024-03-08T02:14:31;3.00;80.80
3416;DHT22;1721;51.238;9.562;2024-03-08T02:17:01;2.90;80.10
3416;DHT22;1721;51.238;9.562;2024-03-08T02:19:26;2.90;80.70
3416;DHT22;1721;51.238;9.562;2024-03-08T02:21:52;2.90;80.60
3416;DHT22;1721;51.238;9.562;2024-03-08T02:24:18;2.90;80.70
3416;DHT22;1721;51.238;9.562;2024-03-08T02:26:43;2.90;81.00
3416;DHT22;1721;51.238;9.562;2024-03-08T02:29:09;2.90;81.10
3416;DHT22;1721;51.238;9.562;2024-03-08T02:31:35;2.80;81.10
3416;DHT22;1721;51.238;9.562;2024-03-08T02:34:00;2.80;81.00
3416;DHT22;1721;51.238;9.562;2024-03-08T02:36:26;2.80;81.10
3416;DHT22;1721;51.238;9.562;2024-03-08T02:38:51;2.80;81.10
3416;DHT22;1721;51.238;9.562;2024-03-08T02:41:17;2.80;80.80
3416;DHT22;1721;51.238;9.562;2024-03-08T02:43:44;2.80;80.70
3416;DHT22;1721;51.238;9.562;2024-03-08T02:46:12;2.80;80.90
3416;DHT22;1721;51.238;9.562;2024-03-08T02:48:37;2.70;80.60
3416;DHT22;1721;51.238;9.562;2024-03-08T02:51:05;2.70;80.50
3416;DHT22;1721;51.238;9.562;2024-03-08T02:53:30;2.70;80.50
3416;DHT22;1721;51.238;9.562;2024-03-08T02:55:56;2.70;80.50
3416;DHT22;1721;51.238;9.562;2024-03-08T02:58:21;2.70;80.70
3416;DHT22;1721;51.238;9.562;2024-03-08T03:00:47;2.70;80.50
3416;DHT22;1721;51.238;9.562;2024-03-08T03:03:12;2.70;80.60
3416;DHT22;1721;51.238;9.562;2024-03-08T03:05:38;2.60;80.80
3416;DHT22;1721;51.238;9.562;2024-03-08T03:08:06;2.60;81.00
3416;DHT22;1721;51.238;9.562;2024-03-08T03:10:34;2.60;81.00
3416;DHT22;1721;51.238;9.562;2024-03-08T03:13:00;2.60;81.00
3416;DHT22;1721;51.238;9.562;2024-03-08T03:15:25;2.60;81.10
3416;DHT22;1721;51.238;9.562;2024-03-08T03:17:51;2.70;81.10
3416;DHT22;1721;51.238;9.562;2024-03-08T03:20:17;2.60;81.00
3416;DHT22;1721;51.238;9.562;2024-03-08T03:22:51;2.70;81.10
3416;DHT22;1721;51.238;9.562;2024-03-08T03:25:20;2.60;80.90
3416;DHT22;1721;51.238;9.562;2024-03-08T03:27:54;2.60;80.90
3416;DHT22;1721;51.238;9.562;2024-03-08T03:30:22;2.60;81.10
3416;DHT22;1721;51.238;9.562;2024-03-08T03:32:49;2.60;81.10
3416;DHT22;1721;51.238;9.562;2024-03-08T03:35:19;2.60;81.70
3416;DHT22;1721;51.238;9.562;2024-03-08T03:37:46;2.60;81.10
3416;DHT22;1721;51.238;9.562;2024-03-08T03:40:27;2.50;81.20
3416;DHT22;1721;51.238;9.562;2024-03-08T03:42:53;2.50;81.60
3416;DHT22;1721;51.238;9.562;2024-03-08T03:45:18;2.50;81.60
3416;DHT22;1721;51.238;9.562;2024-03-08T03:47:45;2.40;81.50
3416;DHT22;1721;51.238;9.562;2024-03-08T03:50:11;2.40;81.60
3416;DHT22;1721;51.238;9.562;2024-03-08T03:52:37;2.40;81.50
3416;DHT22;1721;51.238;9.562;2024-03-08T03:55:03;2.30;82.10
3416;DHT22;1721;51.238;9.562;2024-03-08T03:57:30;2.20;82.80
3416;DHT22;1721;51.238;9.562;2024-03-08T03:59:56;2.10;83.20
3416;DHT22;1721;51.238;9.562;2024-03-08T04:02:25;2.10;83.50
3416;DHT22;1721;51.238;9.562;2024-03-08T04:04:53;2.10;83.70
3416;DHT22;1721;51.238;9.562;2024-03-08T04:07:20;2.20;83.00
3416;DHT22;1721;51.238;9.562;2024-03-08T04:09:46;2.30;82.90
3416;DHT22;1721;51.238;9.562;2024-03-08T04:12:11;2.30;83.10
3416;DHT22;1721;51.238;9.562;2024-03-08T04:14:40;2.10;83.00
3416;DHT22;1721;51.238;9.562;2024-03-08T04:17:08;2.20;83.10
3416;DHT22;1721;51.238;9.562;2024-03-08T04:19:38;2.30;83.50
3416;DHT22;1721;51.238;9.562;2024-03-08T04:22:03;2.30;83.20
3416;DHT22;1721;51.238;9.562;2024-03-08T04:24:30;2.30;83.40
3416;DHT22;1721;51.238;9.562;2024-03-08T04:26:56;2.30;82.90
3416;DHT22;1721;51.238;9.562;2024-03-08T04:29:23;2.30;83.40
3416;DHT22;1721;51.238;9.562;2024-03-08T04:31:48;2.40;83.00
3416;DHT22;1721;51.238;9.562;2024-03-08T04:34:14;2.40;82.70
3416;DHT22;1721;51.238;9.562;2024-03-08T04:36:40;2.50;82.50
3416;DHT22;1721;51.238;9.562;2024-03-08T04:39:05;2.40;82.30
3416;DHT22;1721;51.238;9.562;2024-03-08T04:41:31;2.40;83.10
3416;DHT22;1721;51.238;9.562;2024-03-08T04:43:59;2.40;82.70
3416;DHT22;1721;51.238;9.562;2024-03-08T04:46:25;2.40;83.20
3416;DHT22;1721;51.238;9.562;2024-03-08T04:48:50;2.50;82.90
3416;DHT22;1721;51.238;9.562;2024-03-08T04:51:16;2.50;82.90
3416;DHT22;1721;51.238;9.562;2024-03-08T04:53:43;2.40;82.70
3416;DHT22;1721;51.238;9.562;2024-03-08T04:56:08;2.40;83.30
3416;DHT22;1721;51.238;9.562;2024-03-08T04:58:36;2.50;82.90
3416;DHT22;1721;51.238;9.562;2024-03-08T05:01:02;2.50;82.50
3416;DHT22;1721;51.238;9.562;2024-03-08T05:03:28;2.60;82.40
3416;DHT22;1721;51.238;9.562;2024-03-08T05:05:53;2.50;82.40
3416;DHT22;1721;51.238;9.562;2024-03-08T05:08:19;2.50;82.10
3416;DHT22;1721;51.238;9.562;2024-03-08T05:10:45;2.50;82.60
3416;DHT22;1721;51.238;9.562;2024-03-08T05:13:11;2.60;82.40
3416;DHT22;1721;51.238;9.562;2024-03-08T05:15:38;2.60;82.00
3416;DHT22;1721;51.238;9.562;2024-03-08T05:18:04;2.60;82.10
3416;DHT22;1721;51.238;9.562;2024-03-08T05:20:30;2.50;82.00
3416;DHT22;1721;51.238;9.562;2024-03-08T05:22:56;2.60;82.00
3416;DHT22;1721;51.238;9.562;2024-03-08T05:25:23;2.50;82.30
3416;DHT22;1721;51.238;9.562;2024-03-08T05:27:48;2.50;81.80
3416;DHT22;1721;51.238;9.562;2024-03-08T05:30:14;2.50;82.70
3416;DHT22;1721;51.238;9.562;2024-03-08T05:32:41;2.50;82.60
3416;DHT22;1721;51.238;9.562;2024-03-08T05:35:11;2.50;82.60
3416;DHT22;1721;51.238;9.562;2024-03-08T05:37:40;2.60;82.60
3416;DHT22;1721;51.238;9.562;2024-03-08T05:40:06;2.60;82.50
3416;DHT22;1721;51.238;9.562;2024-03-08T05:42:35;2.60;82.00
3416;DHT22;1721;51.238;9.562;2024-03-08T05:45:04;2.60;82.00
3416;DHT22;1721;51.238;9.562;2024-03-08T05:47:31;2.50;82.40
3416;DHT22;1721;51.238;9.562;2024-03-08T05:49:58;2.40;82.40
3416;DHT22;1721;51.238;9.562;2024-03-08T05:52:24;2.50;82.90
3416;DHT22;1721;51.238;9.562;2024-03-08T05:54:51;2.50;82.40
3416;DHT22;1721;51.238;9.562;2024-03-08T05:57:17;2.50;82.60
3416;DHT22;1721;51.238;9.562;2024-03-08T05:59:43;2.50;82.80
3416;DHT22;1721;51.238;9.562;2024-03-08T06:02:08;2.40;82.80
3416;DHT22;1721;51.238;9.562;2024-03-08T06:04:34;2.50;82.90
3416;DHT22;1721;51.238;9.562;2024-03-08T06:06:59;2.30;83.20
3416;DHT22;1721;51.238;9.562;2024-03-08T06:09:25;2.20;83.50
3416;DHT22;1721;51.238;9.562;2024-03-08T06:11:52;2.40;84.10
3416;DHT22;1721;51.238;9.562;2024-03-08T06:14:19;2.30;83.40
3416;DHT22;1721;51.238;9.562;2024-03-08T06:16:45;2.10;84.40
3416;DHT22;1721;51.238;9.562;2024-03-08T06:19:12;2.30;85.10
3416;DHT22;1721;51.238;9.562;2024-03-08T06:21:39;2.40;84.80
3416;DHT22;1721;51.238;9.562;2024-03-08T06:24:05;2.60;84.30
3416;DHT22;1721;51.238;9.562;2024-03-08T06:26:31;2.70;83.60
3416;DHT22;1721;51.238;9.562;2024-03-08T06:28:57;2.90;83.50
3416;DHT22;1721;51.238;9.562;2024-03-08T06:31:23;3.00;83.30
3416;DHT22;1721;51.238;9.562;2024-03-08T06:33:49;3.00;82.60
3416;DHT22;1721;51.238;9.562;2024-03-08T06:36:18;3.10;82.40
3416;DHT22;1721;51.238;9.562;2024-03-08T06:38:50;3.10;82.20
3416;DHT22;1721;51.238;9.562;2024-03-08T06:41:16;2.90;82.10
3416;DHT22;1721;51.238;9.562;2024-03-08T06:43:42;2.90;83.00
3416;DHT22;1721;51.238;9.562;2024-03-08T06:46:08;3.00;82.50
3416;DHT22;1721;51.238;9.562;2024-03-08T06:48:34;3.10;82.60
3416;DHT22;1721;51.238;9.562;2024-03-08T06:51:00;3.20;82.20
3416;DHT22;1721;51.238;9.562;2024-03-08T06:53:26;3.40;82.00
3416;DHT22;1721;51.238;9.562;2024-03-08T06:55:51;3.40;81.70
3416;DHT22;1721;51.238;9.562;2024-03-08T06:58:17;3.40;81.10
3416;DHT22;1721;51.238;9.562;2024-03-08T07:00:43;3.40;81.50
3416;DHT22;1721;51.238;9.562;2024-03-08T07:03:09;3.50;81.80
3416;DHT22;1721;51.238;9.562;2024-03-08T07:05:37;3.60;81.70
3416;DHT22;1721;51.238;9.562;2024-03-08T07:08:03;3.70;81.60
3416;DHT22;1721;51.238;9.562;2024-03-08T07:10:29;3.80;81.40
3416;DHT22;1721;51.238;9.562;2024-03-08T07:12:55;3.80;81.40
3416;DHT22;1721;51.238;9.562;2024-03-08T07:15:21;4.00;81.60
3416;DHT22;1721;51.238;9.562;2024-03-08T07:17:48;4.10;81.00
3416;DHT22;1721;51.238;9.562;2024-03-08T07:20:14;4.10;81.40
3416;DHT22;1721;51.238;9.562;2024-03-08T07:22:44;4.00;81.30
3416;DHT22;1721;51.238;9.562;2024-03-08T07:25:13;4.00;81.10
3416;DHT22;1721;51.238;9.562;2024-03-08T07:27:50;4.00;80.90
3416;DHT22;1721;51.238;9.562;2024-03-08T07:30:16;3.90;81.60
3416;DHT22;1721;51.238;9.562;2024-03-08T07:33:01;4.00;81.80
3416;DHT22;1721;51.238;9.562;2024-03-08T07:35:30;4.20;81.10
3416;DHT22;1721;51.238;9.562;2024-03-08T07:37:56;4.30;81.20
3416;DHT22;1721;51.238;9.562;2024-03-08T07:40:23;4.40;80.70
3416;DHT22;1721;51.238;9.562;2024-03-08T07:42:49;4.30;81.80
3416;DHT22;1721;51.238;9.562;2024-03-08T07:45:15;4.30;81.70
3416;DHT22;1721;51.238;9.562;2024-03-08T07:47:41;4.30;81.90
3416;DHT22;1721;51.238;9.562;2024-03-08T07:50:07;4.40;80.80
3416;DHT22;1721;51.238;9.562;2024-03-08T07:52:36;4.40;81.60
3416;DHT22;1721;51.238;9.562;2024-03-08T07:55:05;4.40;81.80
3416;DHT22;1721;51.238;9.562;2024-03-08T07:57:31;4.40;81.80
3416;DHT22;1721;51.238;9.562;2024-03-08T07:59:57;4.40;81.60
3416;DHT22;1721;51.238;9.562;2024-03-08T08:02:23;4.40;81.50
3416;DHT22;1721;51.238;9.562;2024-03-08T08:04:49;4.60;80.90
3416;DHT22;1721;51.238;9.562;2024-03-08T08:07:14;4.40;81.70
3416;DHT22;1721;51.238;9.562;2024-03-08T08:09:40;4.50;81.10
3416;DHT22;1721;51.238;9.562;2024-03-08T08:12:08;4.70;80.50
3416;DHT22;1721;51.238;9.562;2024-03-08T08:14:37;4.90;82.10
3416;DHT22;1721;51.238;9.562;2024-03-08T08:17:03;4.80;80.90
3416;DHT22;1721;51.238;9.562;2024-03-08T08:19:29;4.80;80.80
3416;DHT22;1721;51.238;9.562;2024-03-08T08:21:56;4.90;81.80
3416;DHT22;1721;51.238;9.562;2024-03-08T08:24:23;4.90;81.40
3416;DHT22;1721;51.238;9.562;2024-03-08T08:26:48;5.10;80.90
3416;DHT22;1721;51.238;9.562;2024-03-08T08:29:14;5.20;80.90
3416;DHT22;1721;51.238;9.562;2024-03-08T08:31:40;5.20;79.50
3416;DHT22;1721;51.238;9.562;2024-03-08T08:34:05;5.00;80.50
3416;DHT22;1721;51.238;9.562;2024-03-08T08:36:32;5.00;80.20
3416;DHT22;1721;51.238;9.562;2024-03-08T08:38:59;4.80;80.20
3416;DHT22;1721;51.238;9.562;2024-03-08T08:41:25;4.70;80.50
3416;DHT22;1721;51.238;9.562;2024-03-08T08:43:50;4.80;81.90
3416;DHT22;1721;51.238;9.562;2024-03-08T08:46:19;5.00;81.80
3416;DHT22;1721;51.238;9.562;2024-03-08T08:48:45;5.00;80.00
3416;DHT22;1721;51.238;9.562;2024-03-08T08:51:11;4.80;81.40
3416;DHT22;1721;51.238;9.562;2024-03-08T08:53:38;5.20;80.80
3416;DHT22;1721;51.238;9.562;2024-03-08T08:56:06;5.20;79.80
3416;DHT22;1721;51.238;9.562;2024-03-08T08:58:33;5.20;80.00
3416;DHT22;1721;51.238;9.562;2024-03-08T09:00:59;5.40;80.80
3416;DHT22;1721;51.238;9.562;2024-03-08T09:03:25;5.50;80.10
3416;DHT22;1721;51.238;9.562;2024-03-08T09:05:52;5.50;79.40
3416;DHT22;1721;51.238;9.562;2024-03-08T09:08:18;5.50;78.80
3416;DHT22;1721;51.238;9.562;2024-03-08T09:10:45;5.30;79.30
3416;DHT22;1721;51.238;9.562;2024-03-08T09:13:10;5.40;80.30
3416;DHT22;1721;51.238;9.562;2024-03-08T09:15:38;5.60;80.00
3416;DHT22;1721;51.238;9.562;2024-03-08T09:18:06;5.70;80.40
3416;DHT22;1721;51.238;9.562;2024-03-08T09:20:31;5.70;79.50
3416;DHT22;1721;51.238;9.562;2024-03-08T09:22:57;5.90;79.90
3416;DHT22;1721;51.238;9.562;2024-03-08T09:25:23;6.10;79.40
3416;DHT22;1721;51.238;9.562;2024-03-08T09:27:48;6.30;78.80
3416;DHT22;1721;51.238;9.562;2024-03-08T09:30:15;6.60;76.70
3416;DHT22;1721;51.238;9.562;2024-03-08T09:32:41;6.60;75.80
3416;DHT22;1721;51.238;9.562;2024-03-08T09:35:08;6.50;75.50
3416;DHT22;1721;51.238;9.562;2024-03-08T09:37:34;6.20;76.20
3416;DHT22;1721;51.238;9.562;2024-03-08T09:40:00;6.20;78.60
3416;DHT22;1721;51.238;9.562;2024-03-08T09:42:30;6.30;77.20
3416;DHT22;1721;51.238;9.562;2024-03-08T09:44:57;6.20;77.50
3416;DHT22;1721;51.238;9.562;2024-03-08T09:47:25;6.40;76.90
3416;DHT22;1721;51.238;9.562;2024-03-08T09:49:54;6.60;76.30
3416;DHT22;1721;51.238;9.562;2024-03-08T09:52:20;6.80;75.40
3416;DHT22;1721;51.238;9.562;2024-03-08T09:54:46;6.60;74.90
3416;DHT22;1721;51.238;9.562;2024-03-08T09:57:11;6.50;75.20
3416;DHT22;1721;51.238;9.562;2024-03-08T09:59:37;6.60;75.50
3416;DHT22;1721;51.238;9.562;2024-03-08T10:02:03;6.70;76.60
3416;DHT22;1721;51.238;9.562;2024-03-08T10:04:30;6.70;75.80
3416;DHT22;1721;51.238;9.562;2024-03-08T10:07:00;6.80;75.60
3416;DHT22;1721;51.238;9.562;2024-03-08T10:09:26;6.60;76.20
3416;DHT22;1721;51.238;9.562;2024-03-08T10:11:56;6.60;76.40
3416;DHT22;1721;51.238;9.562;2024-03-08T10:14:23;6.40;75.80
3416;DHT22;1721;51.238;9.562;2024-03-08T10:16:52;6.60;75.70
3416;DHT22;1721;51.238;9.562;2024-03-08T10:19:17;6.60;75.20
3416;DHT22;1721;51.238;9.562;2024-03-08T10:21:49;6.40;75.10
3416;DHT22;1721;51.238;9.562;2024-03-08T10:24:15;6.50;75.40
3416;DHT22;1721;51.238;9.562;2024-03-08T10:26:42;6.50;76.70
3416;DHT22;1721;51.238;9.562;2024-03-08T10:29:09;6.60;77.20
3416;DHT22;1721;51.238;9.562;2024-03-08T10:31:35;6.70;75.70
3416;DHT22;1721;51.238;9.562;2024-03-08T10:34:01;6.50;75.40
3416;DHT22;1721;51.238;9.562;2024-03-08T10:36:28;6.50;75.80
3416;DHT22;1721;51.238;9.562;2024-03-08T10:38:53;6.40;76.70
3416;DHT22;1721;51.238;9.562;2024-03-08T10:41:24;6.50;77.00
3416;DHT22;1721;51.238;9.562;2024-03-08T10:49:16;6.80;75.90
3416;DHT22;1721;51.238;9.562;2024-03-08T10:51:43;6.90;76.50
3416;DHT22;1721;51.238;9.562;2024-03-08T10:54:10;6.70;74.90
3416;DHT22;1721;51.238;9.562;2024-03-08T10:56:37;6.60;74.90
3416;DHT22;1721;51.238;9.562;2024-03-08T10:59:07;6.70;75.40
3416;DHT22;1721;51.238;9.562;2024-03-08T11:01:33;6.70;75.90
3416;DHT22;1721;51.238;9.562;2024-03-08T11:03:59;7.10;76.30
3416;DHT22;1721;51.238;9.562;2024-03-08T11:06:42;6.90;76.20
3416;DHT22;1721;51.238;9.562;2024-03-08T11:09:29;6.90;75.10
3416;DHT22;1721;51.238;9.562;2024-03-08T11:14:49;7.00;75.30
3416;DHT22;1721;51.238;9.562;2024-03-08T11:17:17;7.00;74.40
3416;DHT22;1721;51.238;9.562;2024-03-08T11:19:48;7.20;74.50
3416;DHT22;1721;51.238;9.562;2024-03-08T11:22:27;7.20;74.20
3416;DHT22;1721;51.238;9.562;2024-03-08T11:24:53;7.10;74.50
3416;DHT22;1721;51.238;9.562;2024-03-08T11:27:31;7.00;74.00
3416;DHT22;1721;51.238;9.562;2024-03-08T11:30:07;6.70;74.40
3416;DHT22;1721;51.238;9.562;2024-03-08T11:32:50;6.90;74.50
3416;DHT22;1721;51.238;9.562;2024-03-08T11:35:21;6.80;76.30
3416;DHT22;1721;51.238;9.562;2024-03-08T11:37:48;7.00;76.00
3416;DHT22;1721;51.238;9.562;2024-03-08T11:40:14;7.20;74.70
3416;DHT22;1721;51.238;9.562;2024-03-08T11:42:45;7.20;74.50
3416;DHT22;1721;51.238;9.562;2024-03-08T11:45:18;7.30;74.20
3416;DHT22;1721;51.238;9.562;2024-03-08T11:47:46;7.20;75.30
3416;DHT22;1721;51.238;9.562;2024-03-08T11:50:13;7.20;74.90
3416;DHT22;1721;51.238;9.562;2024-03-08T11:52:39;7.20;75.40
3416;DHT22;1721;51.238;9.562;2024-03-08T11:55:05;7.00;76.30
3416;DHT22;1721;51.238;9.562;2024-03-08T11:57:31;6.80;76.30
3416;DHT22;1721;51.238;9.562;2024-03-08T11:59:58;6.70;76.20
3416;DHT22;1721;51.238;9.562;2024-03-08T12:02:24;6.70;76.50
3416;DHT22;1721;51.238;9.562;2024-03-08T12:05:00;6.90;77.10
3416;DHT22;1721;51.238;9.562;2024-03-08T12:07:26;7.10;76.90
3416;DHT22;1721;51.238;9.562;2024-03-08T12:12:46;7.20;76.70
3416;DHT22;1721;51.238;9.562;2024-03-08T12:15:13;7.30;76.80
3416;DHT22;1721;51.238;9.562;2024-03-08T12:17:41;7.40;76.60
3416;DHT22;1721;51.238;9.562;2024-03-08T12:20:21;7.50;76.70
3416;DHT22;1721;51.238;9.562;2024-03-08T12:22:57;7.50;76.90
3416;DHT22;1721;51.238;9.562;2024-03-08T12:25:26;7.60;76.70
3416;DHT22;1721;51.238;9.562;2024-03-08T12:27:52;7.50;75.80
3416;DHT22;1721;51.238;9.562;2024-03-08T12:30:26;7.40;76.40
3416;DHT22;1721;51.238;9.562;2024-03-08T12:32:56;7.30;76.40
3416;DHT22;1721;51.238;9.562;2024-03-08T12:35:26;7.30;77.50
3416;DHT22;1721;51.238;9.562;2024-03-08T12:37:53;7.60;77.60
3416;DHT22;1721;51.238;9.562;2024-03-08T12:40:25;7.60;76.80
3416;DHT22;1721;51.238;9.562;2024-03-08T12:42:57;7.80;78.20
3416;DHT22;1721;51.238;9.562;2024-03-08T12:45:24;8.00;75.80
3416;DHT22;1721;51.238;9.562;2024-03-08T12:47:54;7.80;76.50
3416;DHT22;1721;51.238;9.562;2024-03-08T12:50:21;7.60;76.70
3416;DHT22;1721;51.238;9.562;2024-03-08T12:52:47;7.50;76.90
3416;DHT22;1721;51.238;9.562;2024-03-08T12:55:14;7.50;77.40
3416;DHT22;1721;51.238;9.562;2024-03-08T12:57:42;7.70;77.90
3416;DHT22;1721;51.238;9.562;2024-03-08T13:00:08;7.80;77.40
3416;DHT22;1721;51.238;9.562;2024-03-08T13:02:50;8.10;76.70
3416;DHT22;1721;51.238;9.562;2024-03-08T13:05:17;8.10;77.00
3416;DHT22;1721;51.238;9.562;2024-03-08T13:07:43;8.30;75.40
3416;DHT22;1721;51.238;9.562;2024-03-08T13:10:13;8.20;75.90
3416;DHT22;1721;51.238;9.562;2024-03-08T13:12:41;8.30;76.40
3416;DHT22;1721;51.238;9.562;2024-03-08T13:15:07;8.30;75.80
3416;DHT22;1721;51.238;9.562;2024-03-08T13:17:34;8.20;76.10
3416;DHT22;1721;51.238;9.562;2024-03-08T13:20:00;8.20;77.10
3416;DHT22;1721;51.238;9.562;2024-03-08T13:22:25;8.40;75.70
3416;DHT22;1721;51.238;9.562;2024-03-08T13:24:51;8.50;75.50
3416;DHT22;1721;51.238;9.562;2024-03-08T13:27:20;8.40;75.40
3416;DHT22;1721;51.238;9.562;2024-03-08T13:29:48;8.30;76.10
3416;DHT22;1721;51.238;9.562;2024-03-08T13:32:15;8.30;76.10
3416;DHT22;1721;51.238;9.562;2024-03-08T13:34:44;8.30;75.50
3416;DHT22;1721;51.238;9.562;2024-03-08T13:37:11;8.40;75.20
3416;DHT22;1721;51.238;9.562;2024-03-08T13:39:38;8.50;75.30
3416;DHT22;1721;51.238;9.562;2024-03-08T13:42:07;8.50;75.30
3416;DHT22;1721;51.238;9.562;2024-03-08T13:44:35;8.40;75.00
3416;DHT22;1721;51.238;9.562;2024-03-08T13:47:02;8.60;75.60
3416;DHT22;1721;51.238;9.562;2024-03-08T13:49:30;8.60;75.90
3416;DHT22;1721;51.238;9.562;2024-03-08T13:51:56;8.50;75.30
3416;DHT22;1721;51.238;9.562;2024-03-08T13:54:24;8.50;75.90
3416;DHT22;1721;51.238;9.562;2024-03-08T13:56:50;8.70;75.00
3416;DHT22;1721;51.238;9.562;2024-03-08T13:59:19;8.70;75.00
3416;DHT22;1721;51.238;9.562;2024-03-08T14:01:48;8.70;75.30
3416;DHT22;1721;51.238;9.562;2024-03-08T14:04:14;8.80;74.70
3416;DHT22;1721;51.238;9.562;2024-03-08T14:06:40;8.80;74.80
3416;DHT22;1721;51.238;9.562;2024-03-08T14:09:06;8.80;74.70
3416;DHT22;1721;51.238;9.562;2024-03-08T14:11:33;8.90;74.60
3416;DHT22;1721;51.238;9.562;2024-03-08T14:13:58;9.00;74.90
3416;DHT22;1721;51.238;9.562;2024-03-08T14:16:24;9.00;74.90
3416;DHT22;1721;51.238;9.562;2024-03-08T14:18:50;9.10;75.40
3416;DHT22;1721;51.238;9.562;2024-03-08T14:21:15;9.40;74.20
3416;DHT22;1721;51.238;9.562;2024-03-08T14:23:42;9.20;74.30
3416;DHT22;1721;51.238;9.562;2024-03-08T14:26:08;9.10;75.30
3416;DHT22;1721;51.238;9.562;2024-03-08T14:28:35;8.90;75.10
3416;DHT22;1721;51.238;9.562;2024-03-08T14:31:01;8.80;75.60
3416;DHT22;1721;51.238;9.562;2024-03-08T14:33:28;8.60;75.90
3416;DHT22;1721;51.238;9.562;2024-03-08T14:35:54;8.60;76.40
3416;DHT22;1721;51.238;9.562;2024-03-08T14:38:19;8.60;76.50
3416;DHT22;1721;51.238;9.562;2024-03-08T14:40:45;8.90;75.60
3416;DHT22;1721;51.238;9.562;2024-03-08T14:43:12;9.00;75.40
3416;DHT22;1721;51.238;9.562;2024-03-08T14:45:39;8.90;75.20
3416;DHT22;1721;51.238;9.562;2024-03-08T14:48:05;8.90;75.30
3416;DHT22;1721;51.238;9.562;2024-03-08T14:50:30;8.90;75.20
3416;DHT22;1721;51.238;9.562;2024-03-08T14:52:58;8.90;76.20
3416;DHT22;1721;51.238;9.562;2024-03-08T14:55:25;9.00;75.40
3416;DHT22;1721;51.238;9.562;2024-03-08T14:57:52;9.10;75.00
3416;DHT22;1721;51.238;9.562;2024-03-08T15:00:20;9.00;74.90
3416;DHT22;1721;51.238;9.562;2024-03-08T15:02:53;8.90;74.80
3416;DHT22;1721;51.238;9.562;2024-03-08T15:05:19;8.90;75.60
3416;DHT22;1721;51.238;9.562;2024-03-08T15:07:47;9.00;75.20
3416;DHT22;1721;51.238;9.562;2024-03-08T15:10:12;9.00;75.60
3416;DHT22;1721;51.238;9.562;2024-03-08T15:12:41;9.10;75.90
3416;DHT22;1721;51.238;9.562;2024-03-08T15:15:12;8.90;75.60
3416;DHT22;1721;51.238;9.562;2024-03-08T15:17:39;9.10;75.60
3416;DHT22;1721;51.238;9.562;2024-03-08T15:20:06;9.40;74.20
3416;DHT22;1721;51.238;9.562;2024-03-08T15:22:46;9.50;73.80
3416;DHT22;1721;51.238;9.562;2024-03-08T15:25:11;9.20;74.10
3416;DHT22;1721;51.238;9.562;2024-03-08T15:27:40;9.10;74.90
3416;DHT22;1721;51.238;9.562;2024-03-08T15:30:07;9.00;75.10
3416;DHT22;1721;51.238;9.562;2024-03-08T15:32:39;9.00;75.50
3416;DHT22;1721;51.238;9.562;2024-03-08T15:35:07;8.90;75.00
3416;DHT22;1721;51.238;9.562;2024-03-08T15:37:33;8.80;75.60
3416;DHT22;1721;51.238;9.562;2024-03-08T15:39:59;8.80;75.80
3416;DHT22;1721;51.238;9.562;2024-03-08T15:42:24;8.90;75.80
3416;DHT22;1721;51.238;9.562;2024-03-08T15:44:51;9.00;74.90
3416;DHT22;1721;51.238;9.562;2024-03-08T15:47:16;8.90;75.10
3416;DHT22;1721;51.238;9.562;2024-03-08T15:49:42;8.90;75.30
3416;DHT22;1721;51.238;9.562;2024-03-08T15:52:10;8.90;75.00
3416;DHT22;1721;51.238;9.562;2024-03-08T15:54:37;9.00;74.70
3416;DHT22;1721;51.238;9.562;2024-03-08T15:57:05;8.90;75.00
3416;DHT22;1721;51.238;9.562;2024-03-08T15:59:36;8.70;75.20
3416;DHT22;1721;51.238;9.562;2024-03-08T16:02:02;8.80;75.60
3416;DHT22;1721;51.238;9.562;2024-03-08T16:04:29;8.70;75.30
3416;DHT22;1721;51.238;9.562;2024-03-08T16:06:55;8.60;75.80
3416;DHT22;1721;51.238;9.562;2024-03-08T16:09:20;8.50;76.50
3416;DHT22;1721;51.238;9.562;2024-03-08T16:11:47;8.70;76.00
3416;DHT22;1721;51.238;9.562;2024-03-08T16:14:14;8.80;75.30
3416;DHT22;1721;51.238;9.562;2024-03-08T16:16:41;8.80;75.40
3416;DHT22;1721;51.238;9.562;2024-03-08T16:19:07;8.80;75.50
3416;DHT22;1721;51.238;9.562;2024-03-08T16:21:33;8.70;75.90
3416;DHT22;1721;51.238;9.562;2024-03-08T16:23:59;8.70;76.30
3416;DHT22;1721;51.238;9.562;2024-03-08T16:26:28;8.70;76.60